Anniston Metropolitan Airport
KANB : now visible

Airfield :











YOU CAN JOIN US ON...

 
LOGIN :

Register | Disclaimer

   EN    FR    IT 

 









Legend :    VFR   Marginal VFR   IFR   Intensive IFR   Very Intensive IFR
Visi :
Ceiling :
>= 8 km
>= 3000ft
5 to 8 km
1000 to 3000 ft
1500m to 5 km
500 to 1000 ft
800 to 1500m
200 to 500 ft
< 800m
< 200 ft
Symbols :   Thunderstorms  Fog  Heavy snow  Heavy precipitations  Wind > 20 kt







- Airport Elevation : 612 ft
- IATA code : ANB


KANB - Anniston Metropolitan

CURRENT METAR :
  • 191349Z AUTO 25003KT 4SM -TSRA SCT050 BKN080 OVC100 26/23 A3012 RMK AO2 LTG DSNT NE AND NW RAB39 TSB48 SLP190 P0001 T02610233

EXPIRED METARs :
  • 191253Z AUTO 00000KT 10SM BKN040 OVC049 25/23 A3011 RMK AO2 SLP186 T02500233
  • 191153Z AUTO 00000KT 10SM CLR 24/23 A3008 RMK AO2 SLP175 T02440233 10256 20233 53013

TAF KANB
Valid from the 19 at 14:00 until the 20 at 12:00 UTC


191332Z 1914/2012 VRB05KT P6SM SHRA BKN040 BKN050
FM191500 23005KT P6SM SCT035 BKN050
FM191800 22005KT P6SM VCTS BKN040CB
FM200100 00000KT P6SM FEW050 BKN250
KZTL FIR / North America



MET'MAP, your aeronautical weather chart ! - Copyright ORBIFLY December 2007 - Disclaimer

ORBIFLY MET'MAP TEAM :

Programming & Development : Alexandra Zaïnal
Concept & Development : Baudouin d'Aumeries
Co-Development & Prog : Marc-Olivier Méhu
Technical & hardware support : Manuel Goepfert

Contact : metmap@orbifly.com




SOURCES & CREDITS :

   NOAA       Earth
Advisory